Time;durP1;ratioP1;P1;durP2;ratioP2;P2;SDS_P1;SDS_P2;PMS_P1;PMS_P2;Temp;Humidity;BMP_temperature;BMP_pressure;BME280_temperature;BME280_humidity;BME280_pressure;Samples;Min_cycle;Max_cycle;Signal;HPM_P1;HPM_P2
2022/07/30 00:01:03;;;;;;;6.70;2.63;;;;;;;;;;4958710;28;20574;-74
2022/07/30 00:03:30;;;;;;;5.90;2.50;;;;;;;;;;4956036;29;20331;-74
2022/07/30 00:05:59;;;;;;;3.87;2.30;;;;;;;;;;4955559;29;20261;-74
2022/07/30 00:08:26;;;;;;;3.63;2.33;;;;;;;;;;4955649;29;20767;-74
2022/07/30 00:10:53;;;;;;;4.13;2.23;;;;;;;;;;4955886;29;20309;-74
2022/07/30 00:13:21;;;;;;;4.83;2.27;;;;;;;;;;4955757;29;20671;-74
2022/07/30 00:15:48;;;;;;;4.93;2.60;;;;;;;;;;4955931;29;20242;-74
2022/07/30 00:18:15;;;;;;;3.30;2.00;;;;;;;;;;4954729;29;20264;-74
2022/07/30 00:20:42;;;;;;;6.23;2.47;;;;;;;;;;4955229;29;20268;-74
2022/07/30 00:23:11;;;;;;;5.90;2.30;;;;;;;;;;4955453;29;20249;-74
2022/07/30 00:25:38;;;;;;;4.73;2.23;;;;;;;;;;4955482;29;20207;-74
2022/07/30 00:28:05;;;;;;;4.93;2.33;;;;;;;;;;4955669;29;20248;-74
2022/07/30 00:30:33;;;;;;;9.20;2.83;;;;;;;;;;4955557;29;20237;-74
2022/07/30 00:33:00;;;;;;;4.60;2.70;;;;;;;;;;4955746;29;20245;-74
2022/07/30 00:35:27;;;;;;;3.53;2.27;;;;;;;;;;4954921;29;20243;-74
2022/07/30 00:37:54;;;;;;;5.20;3.17;;;;;;;;;;4955443;29;20290;-74
2022/07/30 00:40:23;;;;;;;6.80;2.80;;;;;;;;;;4955045;29;20675;-74
2022/07/30 00:42:50;;;;;;;5.00;2.70;;;;;;;;;;4955278;29;20238;-74
2022/07/30 00:45:18;;;;;;;8.93;3.03;;;;;;;;;;4955556;29;20338;-74
2022/07/30 00:47:46;;;;;;;5.53;3.10;;;;;;;;;;4955005;29;20599;-74
2022/07/30 00:50:14;;;;;;;7.70;2.90;;;;;;;;;;4954545;29;20199;-74
2022/07/30 00:52:42;;;;;;;8.63;3.57;;;;;;;;;;4954759;29;20250;-74
2022/07/30 00:55:10;;;;;;;7.77;3.20;;;;;;;;;;4955288;29;20259;-74
2022/07/30 00:57:39;;;;;;;7.83;3.00;;;;;;;;;;4946777;29;20275;-74
2022/07/30 01:00:07;;;;;;;5.80;2.97;;;;;;;;;;4943834;29;20719;-74
2022/07/30 01:02:35;;;;;;;7.27;3.20;;;;;;;;;;4955075;29;20239;-74
2022/07/30 01:05:02;;;;;;;5.57;3.43;;;;;;;;;;4953742;28;20234;-74
2022/07/30 01:07:29;;;;;;;5.57;3.37;;;;;;;;;;4954969;29;20310;-74
2022/07/30 01:09:56;;;;;;;7.40;3.10;;;;;;;;;;4954880;29;20302;-74
2022/07/30 01:12:25;;;;;;;8.13;3.60;;;;;;;;;;4954342;28;20299;-74
2022/07/30 01:14:56;;;;;;;6.67;3.63;;;;;;;;;;4954848;29;20286;-74
2022/07/30 01:17:23;;;;;;;6.17;3.63;;;;;;;;;;4954820;28;20199;-74
2022/07/30 01:19:52;;;;;;;5.80;3.33;;;;;;;;;;4954088;29;20254;-74
2022/07/30 01:22:30;;;;;;;6.70;3.57;;;;;;;;;;4954592;29;20270;-74
2022/07/30 01:24:59;;;;;;;8.43;3.73;;;;;;;;;;4954414;28;20309;-74
2022/07/30 01:27:29;;;;;;;8.53;3.67;;;;;;;;;;4954533;28;20242;-73
2022/07/30 01:29:57;;;;;;;6.50;3.70;;;;;;;;;;4954672;29;20705;-74
2022/07/30 01:32:26;;;;;;;8.27;3.70;;;;;;;;;;4954430;29;20241;-74
2022/07/30 01:34:53;;;;;;;8.77;4.00;;;;;;;;;;4954219;29;20245;-74
2022/07/30 01:37:21;;;;;;;8.20;3.87;;;;;;;;;;4954410;29;20250;-74
2022/07/30 01:39:50;;;;;;;12.37;4.00;;;;;;;;;;4954407;29;20326;-74
2022/07/30 01:42:18;;;;;;;10.10;3.57;;;;;;;;;;4954617;28;20802;-74
2022/07/30 01:44:48;;;;;;;8.70;3.53;;;;;;;;;;4954385;29;20678;-74
2022/07/30 01:47:17;;;;;;;5.33;3.80;;;;;;;;;;4954195;29;20234;-74
2022/07/30 01:49:45;;;;;;;7.00;3.70;;;;;;;;;;4954341;28;20246;-74
2022/07/30 01:52:12;;;;;;;6.67;3.57;;;;;;;;;;4969256;28;20256;-74
2022/07/30 01:54:40;;;;;;;6.80;3.40;;;;;;;;;;4954264;29;20293;-74
2022/07/30 01:57:08;;;;;;;8.30;3.70;;;;;;;;;;4957506;28;20293;-74
2022/07/30 01:59:36;;;;;;;10.53;3.87;;;;;;;;;;4968554;28;20281;-74
2022/07/30 02:02:04;;;;;;;9.40;4.30;;;;;;;;;;4953982;29;20242;-73
2022/07/30 02:04:32;;;;;;;8.83;4.40;;;;;;;;;;4953851;28;20271;-74
2022/07/30 02:07:01;;;;;;;8.40;4.47;;;;;;;;;;4953609;29;20298;-74
2022/07/30 02:09:30;;;;;;;7.63;3.93;;;;;;;;;;4954145;29;20243;-73
2022/07/30 02:14:46;;;;;;;9.13;4.50;;;;;;;;;;4954232;29;20207;-74
2022/07/30 02:17:17;;;;;;;6.33;4.00;;;;;;;;;;4953786;29;20237;-74
2022/07/30 02:19:44;;;;;;;9.77;4.83;;;;;;;;;;4953823;29;20671;-74
2022/07/30 02:22:13;;;;;;;7.00;4.47;;;;;;;;;;4954228;29;20231;-74
2022/07/30 02:24:42;;;;;;;7.63;4.93;;;;;;;;;;4954117;28;20742;-74
2022/07/30 02:27:13;;;;;;;9.43;4.50;;;;;;;;;;4954175;29;20279;-74
2022/07/30 02:29:41;;;;;;;8.23;4.37;;;;;;;;;;4954331;29;20238;-74
2022/07/30 02:32:09;;;;;;;7.17;4.50;;;;;;;;;;4953519;28;20618;-74
2022/07/30 02:34:41;;;;;;;8.00;5.20;;;;;;;;;;4954287;29;20219;-74
2022/07/30 02:37:09;;;;;;;9.33;5.27;;;;;;;;;;4954133;29;20238;-74
2022/07/30 02:39:37;;;;;;;11.70;5.67;;;;;;;;;;4954254;28;20250;-73
2022/07/30 02:42:04;;;;;;;7.33;5.17;;;;;;;;;;4957349;29;20262;-74
2022/07/30 02:44:32;;;;;;;7.70;5.00;;;;;;;;;;4957613;29;20234;-73
2022/07/30 02:47:00;;;;;;;8.10;4.80;;;;;;;;;;4957183;28;20246;-73
2022/07/30 02:49:28;;;;;;;7.63;5.33;;;;;;;;;;4957338;28;20288;-74
2022/07/30 02:51:58;;;;;;;8.63;4.90;;;;;;;;;;4957511;29;20200;-73
2022/07/30 02:54:25;;;;;;;8.87;5.37;;;;;;;;;;4957410;29;20301;-74
2022/07/30 02:56:53;;;;;;;6.67;4.63;;;;;;;;;;4955541;29;20247;-74
2022/07/30 02:59:21;;;;;;;10.90;5.17;;;;;;;;;;4940179;29;20259;-74
2022/07/30 03:01:49;;;;;;;8.70;5.23;;;;;;;;;;4939873;29;20317;-74
2022/07/30 03:04:19;;;;;;;11.67;5.03;;;;;;;;;;4957081;29;20249;-74
2022/07/30 03:06:47;;;;;;;7.57;4.60;;;;;;;;;;4957146;29;20239;-74
2022/07/30 03:09:16;;;;;;;11.90;5.93;;;;;;;;;;4956942;29;20295;-73
2022/07/30 03:11:43;;;;;;;10.50;5.40;;;;;;;;;;4957070;29;20239;-73
2022/07/30 03:14:11;;;;;;;10.00;5.60;;;;;;;;;;4956611;29;20297;-73
2022/07/30 03:16:40;;;;;;;10.77;5.70;;;;;;;;;;4957040;29;20234;-74
2022/07/30 03:19:09;;;;;;;8.93;5.37;;;;;;;;;;4956851;29;20746;-74
2022/07/30 03:21:37;;;;;;;10.67;5.70;;;;;;;;;;4956638;29;20227;-74
2022/07/30 03:24:05;;;;;;;8.30;5.27;;;;;;;;;;4956788;29;20294;-73
2022/07/30 03:26:35;;;;;;;10.67;6.00;;;;;;;;;;4956875;29;20298;-73
2022/07/30 03:29:02;;;;;;;11.47;5.30;;;;;;;;;;4956111;29;20710;-73
2022/07/30 03:31:30;;;;;;;9.37;6.33;;;;;;;;;;4956290;29;20207;-73
2022/07/30 03:33:58;;;;;;;11.13;6.77;;;;;;;;;;4956573;29;20242;-74
2022/07/30 03:36:25;;;;;;;11.90;6.90;;;;;;;;;;4956503;29;20242;-74
2022/07/30 03:38:53;;;;;;;11.30;6.77;;;;;;;;;;4956479;29;20203;-74
2022/07/30 03:41:21;;;;;;;14.77;7.33;;;;;;;;;;4956420;29;20234;-74
2022/07/30 03:43:50;;;;;;;12.00;7.67;;;;;;;;;;4955867;29;20249;-74
2022/07/30 03:46:17;;;;;;;16.93;8.07;;;;;;;;;;4956644;29;20286;-74
2022/07/30 03:48:45;;;;;;;12.70;8.07;;;;;;;;;;4956448;29;20238;-74
2022/07/30 03:51:13;;;;;;;16.20;7.50;;;;;;;;;;4955551;28;20610;-73
2022/07/30 03:53:41;;;;;;;15.80;8.10;;;;;;;;;;4955999;29;20292;-74
2022/07/30 03:56:08;;;;;;;13.93;8.57;;;;;;;;;;4956440;29;20235;-73
2022/07/30 03:58:37;;;;;;;12.63;8.07;;;;;;;;;;4955610;29;20322;-74
2022/07/30 04:01:06;;;;;;;15.70;9.23;;;;;;;;;;4956001;29;20239;-73
2022/07/30 04:03:34;;;;;;;16.37;9.33;;;;;;;;;;4955930;29;20294;-74
2022/07/30 04:06:01;;;;;;;13.43;8.80;;;;;;;;;;4955995;29;20679;-73
2022/07/30 04:08:28;;;;;;;14.20;9.33;;;;;;;;;;4955933;29;20294;-73
2022/07/30 04:10:56;;;;;;;15.77;9.10;;;;;;;;;;4955814;29;20291;-73
2022/07/30 04:13:23;;;;;;;16.30;9.80;;;;;;;;;;4955459;29;20246;-73
2022/07/30 04:15:55;;;;;;;18.83;10.03;;;;;;;;;;4955889;29;20242;-74
2022/07/30 04:18:25;;;;;;;16.47;9.77;;;;;;;;;;4955696;29;20290;-73
2022/07/30 04:20:52;;;;;;;13.03;9.87;;;;;;;;;;4955623;29;20309;-74
2022/07/30 04:23:20;;;;;;;15.20;10.20;;;;;;;;;;4955697;29;20246;-73
2022/07/30 04:25:47;;;;;;;14.07;10.70;;;;;;;;;;4955463;29;20250;-74
2022/07/30 04:28:14;;;;;;;17.33;11.00;;;;;;;;;;4955006;29;20631;-73
2022/07/30 04:30:42;;;;;;;17.03;11.23;;;;;;;;;;4955574;29;20246;-74
2022/07/30 04:33:09;;;;;;;18.83;12.00;;;;;;;;;;4955389;29;20242;-74
2022/07/30 04:35:38;;;;;;;21.03;11.93;;;;;;;;;;4955550;29;20245;-73
2022/07/30 04:38:05;;;;;;;16.33;11.37;;;;;;;;;;4955278;29;20203;-73
2022/07/30 04:40:32;;;;;;;17.27;12.00;;;;;;;;;;4955487;29;20274;-74
2022/07/30 04:42:59;;;;;;;16.93;12.17;;;;;;;;;;4954633;29;20249;-73
2022/07/30 04:45:27;;;;;;;15.90;12.50;;;;;;;;;;4955290;29;20207;-74
2022/07/30 04:47:54;;;;;;;18.33;12.50;;;;;;;;;;4955249;29;20242;-74
2022/07/30 04:50:23;;;;;;;19.07;13.43;;;;;;;;;;4955144;29;20683;-73
2022/07/30 04:52:53;;;;;;;19.57;12.70;;;;;;;;;;4955108;29;20573;-73
2022/07/30 04:55:21;;;;;;;16.63;12.90;;;;;;;;;;4954666;29;20293;-74
2022/07/30 04:57:49;;;;;;;15.77;11.73;;;;;;;;;;4963994;28;20238;-73
2022/07/30 05:00:17;;;;;;;18.23;12.43;;;;;;;;;;4974281;28;20674;-73
2022/07/30 05:02:45;;;;;;;19.30;12.97;;;;;;;;;;4973771;28;20714;-73
2022/07/30 05:05:15;;;;;;;21.17;13.70;;;;;;;;;;4974385;28;20199;-74
2022/07/30 05:07:42;;;;;;;18.30;13.63;;;;;;;;;;4974347;28;20293;-74
2022/07/30 05:10:11;;;;;;;19.67;12.97;;;;;;;;;;4973392;28;20293;-73
2022/07/30 05:12:39;;;;;;;17.07;12.23;;;;;;;;;;4973964;28;20285;-73
2022/07/30 05:15:06;;;;;;;17.60;12.13;;;;;;;;;;4973776;28;20233;-74
2022/07/30 05:17:34;;;;;;;17.70;12.33;;;;;;;;;;4973825;28;20241;-74
2022/07/30 05:20:01;;;;;;;17.20;12.47;;;;;;;;;;4974122;28;20285;-74
2022/07/30 05:22:29;;;;;;;17.10;12.63;;;;;;;;;;4973795;28;20265;-74
2022/07/30 05:24:56;;;;;;;17.77;12.67;;;;;;;;;;4973702;28;20678;-73
2022/07/30 05:27:25;;;;;;;17.23;13.60;;;;;;;;;;4973844;28;20766;-73
2022/07/30 05:29:52;;;;;;;16.07;12.33;;;;;;;;;;4973759;28;20237;-74
2022/07/30 05:32:20;;;;;;;18.50;12.83;;;;;;;;;;4973650;28;20686;-73
2022/07/30 05:34:47;;;;;;;19.90;13.20;;;;;;;;;;4973875;28;20238;-73
2022/07/30 05:37:14;;;;;;;17.97;12.33;;;;;;;;;;4973836;28;20305;-73
2022/07/30 05:39:41;;;;;;;16.97;12.70;;;;;;;;;;4973507;28;20336;-74
2022/07/30 05:42:08;;;;;;;17.13;12.30;;;;;;;;;;4973440;28;20318;-74
2022/07/30 05:44:37;;;;;;;19.73;13.03;;;;;;;;;;4973709;28;20721;-74
2022/07/30 05:47:04;;;;;;;15.83;12.60;;;;;;;;;;4973713;28;20249;-74
2022/07/30 05:49:31;;;;;;;18.77;13.60;;;;;;;;;;4973740;28;20637;-74
2022/07/30 05:51:59;;;;;;;15.17;11.97;;;;;;;;;;4973736;28;20580;-74
2022/07/30 05:54:26;;;;;;;15.07;12.43;;;;;;;;;;4973038;28;20234;-74
2022/07/30 05:56:53;;;;;;;19.38;12.82;;;;;;;;;;4971648;28;20255;-74
2022/07/30 05:59:20;;;;;;;15.02;12.30;;;;;;;;;;4954230;29;20262;-74
2022/07/30 06:01:49;;;;;;;16.17;12.48;;;;;;;;;;4954344;29;20321;-74
2022/07/30 06:04:16;;;;;;;14.77;11.77;;;;;;;;;;4954101;29;20207;-74
2022/07/30 06:06:43;;;;;;;14.07;12.55;;;;;;;;;;4954292;29;20290;-74
2022/07/30 06:09:10;;;;;;;16.65;12.88;;;;;;;;;;4953828;29;20690;-74
2022/07/30 06:11:38;;;;;;;16.55;12.80;;;;;;;;;;4954027;29;20235;-74
2022/07/30 06:14:05;;;;;;;15.95;12.05;;;;;;;;;;4954108;28;20295;-74
2022/07/30 06:16:32;;;;;;;15.55;13.52;;;;;;;;;;4957689;29;20231;-74
2022/07/30 06:19:01;;;;;;;14.45;12.27;;;;;;;;;;4958065;29;20242;-74
2022/07/30 06:21:28;;;;;;;17.27;13.93;;;;;;;;;;4957967;29;20265;-74
2022/07/30 06:23:55;;;;;;;17.02;15.23;;;;;;;;;;4957810;29;20234;-74
2022/07/30 06:26:22;;;;;;;19.27;14.70;;;;;;;;;;4957823;29;20242;-74
2022/07/30 06:28:50;;;;;;;17.25;14.70;;;;;;;;;;4957595;29;20250;-74
2022/07/30 06:31:17;;;;;;;17.70;14.20;;;;;;;;;;4957710;29;20714;-74
2022/07/30 06:33:44;;;;;;;15.88;14.00;;;;;;;;;;4957565;29;20290;-74
2022/07/30 06:36:13;;;;;;;15.80;12.57;;;;;;;;;;4957513;29;20238;-74
2022/07/30 06:38:41;;;;;;;16.92;13.00;;;;;;;;;;4957135;29;20207;-74
2022/07/30 06:41:08;;;;;;;15.07;12.90;;;;;;;;;;4957518;29;20235;-74
2022/07/30 06:43:35;;;;;;;15.25;12.35;;;;;;;;;;4957495;29;20203;-74
2022/07/30 06:46:02;;;;;;;12.52;10.80;;;;;;;;;;4957437;29;20250;-74
2022/07/30 06:48:31;;;;;;;13.18;11.80;;;;;;;;;;4957387;29;20238;-74
2022/07/30 06:50:58;;;;;;;12.50;11.18;;;;;;;;;;4957499;29;20205;-74
2022/07/30 06:53:27;;;;;;;11.38;10.13;;;;;;;;;;4956812;29;20231;-75
2022/07/30 06:55:54;;;;;;;10.60;8.98;;;;;;;;;;4957507;29;20246;-74
2022/07/30 06:58:21;;;;;;;10.07;9.07;;;;;;;;;;4957111;28;20278;-74
2022/07/30 07:00:48;;;;;;;12.02;8.95;;;;;;;;;;4956935;29;20270;-74
2022/07/30 07:03:15;;;;;;;11.75;10.43;;;;;;;;;;4957023;29;20286;-72
2022/07/30 07:05:43;;;;;;;12.55;9.55;;;;;;;;;;4956792;29;20612;-74
2022/07/30 07:08:10;;;;;;;13.02;10.57;;;;;;;;;;4957016;29;20231;-74
2022/07/30 07:10:38;;;;;;;10.25;8.88;;;;;;;;;;4957001;29;20239;-74
2022/07/30 07:13:05;;;;;;;10.63;9.52;;;;;;;;;;4957240;29;20282;-74
2022/07/30 07:15:33;;;;;;;10.88;9.75;;;;;;;;;;4957121;29;20235;-75
2022/07/30 07:18:00;;;;;;;13.77;10.45;;;;;;;;;;4956966;29;20262;-74
2022/07/30 07:20:27;;;;;;;12.57;8.88;;;;;;;;;;4956870;29;20212;-74
2022/07/30 07:22:54;;;;;;;12.45;9.60;;;;;;;;;;4956652;29;20313;-74
2022/07/30 07:25:22;;;;;;;13.73;9.02;;;;;;;;;;4957076;28;20234;-74
2022/07/30 07:27:51;;;;;;;10.80;9.68;;;;;;;;;;4956809;29;20199;-74
2022/07/30 07:30:18;;;;;;;11.00;9.43;;;;;;;;;;4956640;29;20289;-74
2022/07/30 07:32:45;;;;;;;12.07;8.88;;;;;;;;;;4956823;29;20824;-74
2022/07/30 07:35:13;;;;;;;12.73;10.48;;;;;;;;;;4956347;29;20211;-74
2022/07/30 07:37:40;;;;;;;10.95;9.60;;;;;;;;;;4956296;29;20200;-74
2022/07/30 07:40:08;;;;;;;12.60;9.65;;;;;;;;;;4956237;29;20246;-75
2022/07/30 07:42:35;;;;;;;10.88;8.10;;;;;;;;;;4956773;29;20285;-74
2022/07/30 07:45:04;;;;;;;9.77;8.43;;;;;;;;;;4956266;29;20235;-75
2022/07/30 07:47:31;;;;;;;13.07;10.20;;;;;;;;;;4956546;29;20349;-74
2022/07/30 07:49:58;;;;;;;12.38;9.70;;;;;;;;;;4956124;29;20238;-75
2022/07/30 07:52:25;;;;;;;12.68;10.48;;;;;;;;;;4956064;29;20286;-74
2022/07/30 07:54:52;;;;;;;11.60;8.32;;;;;;;;;;4956090;29;20294;-74
2022/07/30 07:57:19;;;;;;;10.52;9.43;;;;;;;;;;4956114;29;20797;-74
2022/07/30 07:59:47;;;;;;;13.02;9.63;;;;;;;;;;4956083;29;20912;-75
2022/07/30 08:02:15;;;;;;;10.90;8.38;;;;;;;;;;4955738;29;20646;-74
2022/07/30 08:04:42;;;;;;;10.23;8.20;;;;;;;;;;4955976;29;20306;-74
2022/07/30 08:07:10;;;;;;;8.85;7.43;;;;;;;;;;4955798;29;20211;-75
2022/07/30 08:09:37;;;;;;;10.60;7.70;;;;;;;;;;4955995;29;20698;-75
2022/07/30 08:12:04;;;;;;;10.50;7.97;;;;;;;;;;4955748;29;20754;-75
2022/07/30 08:14:31;;;;;;;9.20;7.15;;;;;;;;;;4955827;29;20299;-75
2022/07/30 08:16:59;;;;;;;7.88;6.60;;;;;;;;;;4956064;29;20294;-75
2022/07/30 08:19:27;;;;;;;8.35;6.60;;;;;;;;;;4955606;29;20294;-75
2022/07/30 08:21:54;;;;;;;9.82;6.63;;;;;;;;;;4955793;29;20620;-75
2022/07/30 08:24:22;;;;;;;7.47;5.70;;;;;;;;;;4955545;29;20294;-75
2022/07/30 08:26:49;;;;;;;8.07;5.18;;;;;;;;;;4955738;29;20207;-75
2022/07/30 08:29:16;;;;;;;7.00;5.57;;;;;;;;;;4955810;29;20250;-75
2022/07/30 08:31:43;;;;;;;8.45;6.60;;;;;;;;;;4955603;29;20249;-75
2022/07/30 08:34:12;;;;;;;9.88;6.78;;;;;;;;;;4955063;29;20239;-75
2022/07/30 08:36:40;;;;;;;9.80;5.47;;;;;;;;;;4955704;29;20203;-75
2022/07/30 08:39:07;;;;;;;7.22;4.43;;;;;;;;;;4954990;28;20230;-75
2022/07/30 08:41:36;;;;;;;7.40;5.10;;;;;;;;;;4955391;29;20238;-75
2022/07/30 08:44:03;;;;;;;6.95;4.28;;;;;;;;;;4955699;29;20285;-75
2022/07/30 08:46:32;;;;;;;7.28;4.22;;;;;;;;;;4955475;29;20290;-75
2022/07/30 08:48:59;;;;;;;8.68;4.80;;;;;;;;;;4955022;29;20238;-75
2022/07/30 08:51:27;;;;;;;9.25;3.60;;;;;;;;;;4955106;29;20286;-75
2022/07/30 08:53:56;;;;;;;7.85;4.13;;;;;;;;;;4955319;29;20282;-74
2022/07/30 08:56:24;;;;;;;4.55;3.40;;;;;;;;;;4955003;29;20207;-74
2022/07/30 08:58:51;;;;;;;4.13;2.95;;;;;;;;;;4954924;29;20281;-74
2022/07/30 09:01:19;;;;;;;5.63;2.85;;;;;;;;;;4954885;29;20271;-75
2022/07/30 09:03:46;;;;;;;7.53;2.83;;;;;;;;;;4954338;29;20318;-75
2022/07/30 09:06:13;;;;;;;4.75;2.95;;;;;;;;;;4955063;29;20199;-74
2022/07/30 09:08:40;;;;;;;3.80;3.40;;;;;;;;;;4955021;29;20290;-74
2022/07/30 09:11:09;;;;;;;4.40;2.65;;;;;;;;;;4954847;29;20239;-74
2022/07/30 09:13:37;;;;;;;4.50;2.45;;;;;;;;;;4955010;29;20231;-75
2022/07/30 09:16:05;;;;;;;7.05;2.70;;;;;;;;;;4954739;29;20562;-74
2022/07/30 09:18:33;;;;;;;5.95;2.58;;;;;;;;;;4954213;29;20289;-74
2022/07/30 09:21:01;;;;;;;3.35;2.05;;;;;;;;;;4954874;29;20254;-75
2022/07/30 09:23:28;;;;;;;4.00;2.20;;;;;;;;;;4954785;29;20262;-74
2022/07/30 09:25:57;;;;;;;4.25;2.00;;;;;;;;;;4955005;29;20238;-74
2022/07/30 09:28:33;;;;;;;5.63;2.28;;;;;;;;;;4954562;29;20549;-74
2022/07/30 09:31:00;;;;;;;4.53;2.10;;;;;;;;;;4954131;29;20644;-74
2022/07/30 09:33:35;;;;;;;4.07;2.10;;;;;;;;;;4954419;29;20239;-74
2022/07/30 09:36:03;;;;;;;3.30;1.92;;;;;;;;;;4954673;29;20207;-74
2022/07/30 09:38:30;;;;;;;5.13;1.90;;;;;;;;;;4954608;29;20230;-74
2022/07/30 09:40:58;;;;;;;5.05;2.25;;;;;;;;;;4954663;29;20203;-74
2022/07/30 09:43:26;;;;;;;3.50;1.65;;;;;;;;;;4954449;29;20796;-75
2022/07/30 09:45:57;;;;;;;4.85;1.70;;;;;;;;;;4954298;29;20293;-74
2022/07/30 09:48:25;;;;;;;4.07;1.77;;;;;;;;;;4954630;29;20258;-74
2022/07/30 09:50:52;;;;;;;4.70;1.90;;;;;;;;;;4956818;28;20242;-74
2022/07/30 09:53:21;;;;;;;3.90;1.80;;;;;;;;;;4958667;29;20283;-75
2022/07/30 09:55:48;;;;;;;4.18;2.03;;;;;;;;;;4958618;29;20214;-74
2022/07/30 09:58:15;;;;;;;4.05;1.85;;;;;;;;;;4958156;29;20321;-74
2022/07/30 10:00:43;;;;;;;3.15;1.80;;;;;;;;;;4957758;29;20295;-75
2022/07/30 10:03:19;;;;;;;6.03;1.80;;;;;;;;;;4958365;29;20318;-74
2022/07/30 10:05:50;;;;;;;2.67;1.33;;;;;;;;;;4958403;29;20242;-74
2022/07/30 10:08:18;;;;;;;3.72;1.80;;;;;;;;;;4958139;29;20289;-74
2022/07/30 10:10:46;;;;;;;4.00;1.50;;;;;;;;;;4957996;29;20210;-74
2022/07/30 10:13:14;;;;;;;3.30;1.60;;;;;;;;;;4958409;29;20258;-74
2022/07/30 10:15:41;;;;;;;2.50;1.80;;;;;;;;;;4957559;29;20686;-74
2022/07/30 10:18:09;;;;;;;2.95;1.70;;;;;;;;;;4958042;29;20296;-75
2022/07/30 10:20:38;;;;;;;2.90;1.50;;;;;;;;;;4958102;29;20293;-74
2022/07/30 10:23:07;;;;;;;5.07;1.70;;;;;;;;;;4957570;29;20325;-75
2022/07/30 10:25:34;;;;;;;2.40;1.60;;;;;;;;;;4957815;29;20234;-75
2022/07/30 10:28:02;;;;;;;3.83;1.67;;;;;;;;;;4958057;29;20194;-75
2022/07/30 10:30:30;;;;;;;3.55;1.75;;;;;;;;;;4957532;29;20230;-75
2022/07/30 10:32:59;;;;;;;2.92;1.67;;;;;;;;;;4957996;29;20196;-74
2022/07/30 10:35:26;;;;;;;4.85;1.60;;;;;;;;;;4957752;29;20301;-75
2022/07/30 10:37:56;;;;;;;3.95;1.80;;;;;;;;;;4957667;29;20202;-75
2022/07/30 10:40:27;;;;;;;3.42;2.10;;;;;;;;;;4957747;29;20245;-75
2022/07/30 10:43:12;;;;;;;3.83;1.75;;;;;;;;;;4957735;29;20313;-78
2022/07/30 10:45:48;;;;;;;2.80;1.80;;;;;;;;;;4957683;29;20297;-78
2022/07/30 10:48:16;;;;;;;4.90;1.85;;;;;;;;;;4957692;29;20202;-78
2022/07/30 10:50:50;;;;;;;2.85;1.70;;;;;;;;;;4957537;29;20687;-78
2022/07/30 10:53:32;;;;;;;3.10;1.60;;;;;;;;;;4957540;29;20198;-78
2022/07/30 10:56:12;;;;;;;3.33;1.80;;;;;;;;;;4957533;29;20694;-78
2022/07/30 10:58:55;;;;;;;4.82;1.80;;;;;;;;;;4957046;29;20715;-78
2022/07/30 11:01:22;;;;;;;2.67;1.90;;;;;;;;;;4956595;28;20390;-78
2022/07/30 11:04:17;;;;;;;3.58;1.90;;;;;;;;;;4957560;29;20285;-78
2022/07/30 11:06:44;;;;;;;2.03;1.60;;;;;;;;;;4957371;29;20289;-78
2022/07/30 11:09:26;;;;;;;3.15;1.70;;;;;;;;;;4957209;29;20679;-78
2022/07/30 11:11:55;;;;;;;2.30;1.75;;;;;;;;;;4956591;29;20234;-78
2022/07/30 11:14:23;;;;;;;2.42;1.55;;;;;;;;;;4956751;29;20234;-78
2022/07/30 11:17:00;;;;;;;2.38;1.65;;;;;;;;;;4957090;29;20721;-78
2022/07/30 11:19:27;;;;;;;3.75;1.80;;;;;;;;;;4957394;29;20213;-78
2022/07/30 11:22:19;;;;;;;2.45;1.80;;;;;;;;;;4957383;29;20282;-78
2022/07/30 11:24:46;;;;;;;3.53;1.60;;;;;;;;;;4938097;29;20266;-78
2022/07/30 11:27:28;;;;;;;2.85;1.80;;;;;;;;;;4956654;29;20238;-78
2022/07/30 11:29:57;;;;;;;1.80;1.50;;;;;;;;;;4956634;29;20202;-78
2022/07/30 11:32:32;;;;;;;3.00;1.60;;;;;;;;;;4956757;29;20237;-78
2022/07/30 11:35:26;;;;;;;2.65;1.70;;;;;;;;;;4956917;29;20233;-77
2022/07/30 11:37:56;;;;;;;3.67;1.70;;;;;;;;;;4879125;29;20689;-77
2022/07/30 11:40:24;;;;;;;3.47;1.63;;;;;;;;;;4878590;29;20248;-78
2022/07/30 11:42:51;;;;;;;3.25;1.58;;;;;;;;;;4878384;29;20221;-78
2022/07/30 11:45:28;;;;;;;4.28;1.65;;;;;;;;;;4878668;29;20241;-78
2022/07/30 11:47:56;;;;;;;3.00;1.65;;;;;;;;;;4878686;29;20204;-78
2022/07/30 11:50:25;;;;;;;2.92;1.55;;;;;;;;;;4878510;29;20259;-78
2022/07/30 11:52:52;;;;;;;2.45;1.60;;;;;;;;;;4878573;29;20237;-78
2022/07/30 11:55:24;;;;;;;4.07;1.77;;;;;;;;;;4878312;29;20642;-78
2022/07/30 11:57:51;;;;;;;3.55;1.65;;;;;;;;;;4877883;29;20241;-78
2022/07/30 12:00:18;;;;;;;4.47;1.98;;;;;;;;;;4877975;29;20233;-78
2022/07/30 12:02:48;;;;;;;3.30;1.50;;;;;;;;;;4878271;29;20209;-78
2022/07/30 12:05:15;;;;;;;5.32;1.67;;;;;;;;;;4878205;29;20216;-78
2022/07/30 12:07:43;;;;;;;3.03;1.40;;;;;;;;;;4878232;29;20209;-78
2022/07/30 12:10:16;;;;;;;2.75;1.63;;;;;;;;;;4878168;29;20251;-78
2022/07/30 12:12:43;;;;;;;3.00;1.45;;;;;;;;;;4886439;29;20247;-78
2022/07/30 12:15:11;;;;;;;3.08;1.55;;;;;;;;;;4956188;29;20311;-78
2022/07/30 12:17:42;;;;;;;3.35;1.40;;;;;;;;;;4955768;29;20657;-78
2022/07/30 12:20:17;;;;;;;2.80;1.50;;;;;;;;;;4955999;29;20238;-78
2022/07/30 12:22:44;;;;;;;6.68;1.80;;;;;;;;;;4956235;29;20238;-78
2022/07/30 12:25:12;;;;;;;2.40;1.40;;;;;;;;;;4955720;29;20332;-78
2022/07/30 12:27:39;;;;;;;3.80;2.00;;;;;;;;;;4955399;29;20301;-75
2022/07/30 12:30:08;;;;;;;3.38;1.85;;;;;;;;;;4955859;29;20237;-74
2022/07/30 12:32:36;;;;;;;1.92;1.55;;;;;;;;;;4955903;29;20293;-74
2022/07/30 12:35:04;;;;;;;2.60;2.00;;;;;;;;;;4955308;29;20207;-75
2022/07/30 12:37:33;;;;;;;3.00;1.80;;;;;;;;;;4955496;29;20289;-75
2022/07/30 12:40:08;;;;;;;2.45;1.48;;;;;;;;;;4955264;29;20262;-74
2022/07/30 12:42:35;;;;;;;5.80;1.63;;;;;;;;;;4955196;29;20646;-74
2022/07/30 12:45:02;;;;;;;1.90;1.70;;;;;;;;;;4955482;29;20272;-75
2022/07/30 12:47:33;;;;;;;3.00;1.60;;;;;;;;;;4955503;29;20302;-75
2022/07/30 12:50:02;;;;;;;5.15;1.83;;;;;;;;;;4955431;29;20203;-75
2022/07/30 12:52:31;;;;;;;2.20;1.40;;;;;;;;;;4955407;29;20198;-74
2022/07/30 12:55:00;;;;;;;2.78;1.67;;;;;;;;;;4954578;29;20298;-74
2022/07/30 12:57:28;;;;;;;2.92;1.50;;;;;;;;;;4954801;29;20223;-74
2022/07/30 13:00:01;;;;;;;4.45;1.50;;;;;;;;;;4955078;28;20679;-74
2022/07/30 13:02:32;;;;;;;3.92;1.75;;;;;;;;;;4955062;28;20843;-74
2022/07/30 13:04:59;;;;;;;2.85;1.88;;;;;;;;;;4954893;29;20230;-74
2022/07/30 13:07:29;;;;;;;2.75;1.60;;;;;;;;;;4955033;29;20237;-75
2022/07/30 13:10:11;;;;;;;2.85;1.50;;;;;;;;;;4954591;29;20202;-74
2022/07/30 13:12:38;;;;;;;3.28;1.60;;;;;;;;;;4955137;29;20294;-75
2022/07/30 13:15:06;;;;;;;3.55;1.90;;;;;;;;;;4954764;29;20213;-75
2022/07/30 13:17:33;;;;;;;2.63;1.67;;;;;;;;;;4954673;28;20718;-75
2022/07/30 13:20:00;;;;;;;3.15;1.83;;;;;;;;;;4954694;29;20230;-74
2022/07/30 13:22:27;;;;;;;1.83;1.67;;;;;;;;;;4954779;29;20230;-74
2022/07/30 13:24:55;;;;;;;2.35;1.65;;;;;;;;;;4954293;28;20322;-74
2022/07/30 13:27:23;;;;;;;3.50;1.50;;;;;;;;;;4955040;29;20226;-74
2022/07/30 13:29:50;;;;;;;2.20;1.67;;;;;;;;;;4954727;29;20290;-74
2022/07/30 13:32:18;;;;;;;4.72;1.63;;;;;;;;;;4954558;29;20245;-74
2022/07/30 13:34:45;;;;;;;2.25;1.63;;;;;;;;;;4954663;29;20623;-74
2022/07/30 13:37:12;;;;;;;2.95;1.60;;;;;;;;;;4954459;28;20247;-75
2022/07/30 13:39:39;;;;;;;3.95;1.70;;;;;;;;;;4954609;29;20243;-74
2022/07/30 13:42:06;;;;;;;2.03;1.63;;;;;;;;;;4954307;28;20722;-74
2022/07/30 13:44:35;;;;;;;3.47;2.00;;;;;;;;;;4954312;28;20314;-74
2022/07/30 13:47:02;;;;;;;2.72;1.65;;;;;;;;;;4954427;28;20242;-74
2022/07/30 13:49:30;;;;;;;3.20;1.58;;;;;;;;;;4954281;29;20675;-74
2022/07/30 13:51:57;;;;;;;2.80;1.80;;;;;;;;;;4954016;29;20293;-74
2022/07/30 13:54:24;;;;;;;2.13;1.60;;;;;;;;;;4954515;29;20195;-74
2022/07/30 13:56:51;;;;;;;2.55;1.50;;;;;;;;;;4954628;28;20622;-74
2022/07/30 13:59:18;;;;;;;1.60;1.40;;;;;;;;;;4968761;28;20230;-73
2022/07/30 14:01:47;;;;;;;1.80;1.60;;;;;;;;;;4954678;29;20290;-74
2022/07/30 14:04:14;;;;;;;3.50;1.60;;;;;;;;;;4954188;29;20263;-74
2022/07/30 14:06:42;;;;;;;1.98;1.63;;;;;;;;;;4953984;29;20672;-74
2022/07/30 14:09:10;;;;;;;2.20;1.35;;;;;;;;;;4954408;29;20206;-74
2022/07/30 14:11:38;;;;;;;1.67;1.48;;;;;;;;;;4954258;29;20254;-74
2022/07/30 14:14:05;;;;;;;2.63;1.48;;;;;;;;;;4954065;29;20762;-75
2022/07/30 14:16:32;;;;;;;5.13;1.70;;;;;;;;;;4954425;29;20805;-74
2022/07/30 14:19:00;;;;;;;4.18;1.50;;;;;;;;;;4954234;29;20242;-74
2022/07/30 14:21:28;;;;;;;1.83;1.33;;;;;;;;;;4953801;29;20294;-74
2022/07/30 14:23:56;;;;;;;1.90;1.70;;;;;;;;;;4954344;29;20269;-74
2022/07/30 14:26:23;;;;;;;3.13;1.48;;;;;;;;;;4954204;29;20217;-74
2022/07/30 14:28:51;;;;;;;3.15;1.40;;;;;;;;;;4953903;29;20630;-74
2022/07/30 14:31:18;;;;;;;2.75;1.33;;;;;;;;;;4954020;29;20234;-75
2022/07/30 14:33:45;;;;;;;3.45;1.58;;;;;;;;;;4954218;29;20286;-74
2022/07/30 14:36:14;;;;;;;3.70;1.73;;;;;;;;;;4954752;28;20231;-74
2022/07/30 14:38:41;;;;;;;3.10;1.13;;;;;;;;;;4957906;29;20234;-75
2022/07/30 14:41:08;;;;;;;2.38;1.50;;;;;;;;;;4957473;29;20734;-74
2022/07/30 14:43:36;;;;;;;2.35;1.65;;;;;;;;;;4957427;29;20566;-75
2022/07/30 14:46:03;;;;;;;1.92;1.50;;;;;;;;;;4957596;29;20203;-74